Tucu Tucu, Argentina
Current Conditions -  °F | °C
As of 9:00 AM on Tuesday 27 Jan 2015 (Local Time) from SCBA Reporting Station
Scattered Clouds Scattered Clouds  
Wind Chill: 35°   Ceiling: Unl
Heat Index: 45°   Visibility: 6mi
Dew Point: 39°   Wind: 25mph
Humidity: 81%   Direction: 290°WNW
Pressure: 29.71"   Gusts: NA
Location:  48.44°S, 71.84°W
Report Text: SCBA 271200Z 29022KT 9999 FEW030 SCT033 07/04 Q1006
Loading
Personal Weather Stations






























Interactive Weather Map New forecast layout! Learn more

10-Day Weather Forecast

Advertisements
Track Severe Weather on mobile